createdAt,value
2022-11-28T00:00:38.543Z,15.57
2022-11-28T00:01:47.575Z,17.15
2022-11-28T00:02:52.595Z,17.90
2022-11-28T00:04:07.207Z,17.33
2022-11-28T00:05:16.761Z,17.67
2022-11-28T00:06:30.469Z,18.25
2022-11-28T00:07:38.086Z,16.13
2022-11-28T00:08:44.203Z,15.88
2022-11-28T00:10:00.802Z,15.75
2022-11-28T00:11:13.510Z,16.55
2022-11-28T00:12:20.869Z,15.32
2022-11-28T00:13:28.389Z,14.77
2022-11-28T00:14:47.150Z,13.13
2022-11-28T00:16:14.385Z,13.65
2022-11-28T00:17:28.197Z,13.77
2022-11-28T00:18:42.875Z,13.77
2022-11-28T00:19:49.868Z,12.82
2022-11-28T00:21:09.586Z,12.52
2022-11-28T00:22:29.316Z,12.73
2022-11-28T00:23:48.858Z,13.30
2022-11-28T00:24:53.730Z,13.63
2022-11-28T00:26:02.786Z,12.10
2022-11-28T00:27:09.481Z,11.27
2022-11-28T00:28:12.947Z,11.57
2022-11-28T00:29:18.383Z,12.63
2022-11-28T00:30:25.623Z,13.35
2022-11-28T00:31:44.270Z,11.65
2022-11-28T00:32:50.714Z,12.43
2022-11-28T00:33:58.209Z,12.52
2022-11-28T00:35:06.833Z,12.07
2022-11-28T00:36:19.667Z,12.38
2022-11-28T00:37:32.638Z,11.40
2022-11-28T00:38:39.185Z,12.80
2022-11-28T00:39:43.728Z,10.82
2022-11-28T00:41:00.440Z,10.90
2022-11-28T00:42:07.398Z,11.52
2022-11-28T00:43:16.429Z,12.20
2022-11-28T00:44:27.818Z,11.85
2022-11-28T00:45:32.267Z,12.27
2022-11-28T00:46:35.753Z,11.02
2022-11-28T00:47:41.759Z,11.43
2022-11-28T00:48:56.911Z,12.00
2022-11-28T00:50:11.512Z,10.82
2022-11-28T00:51:27.469Z,11.65
2022-11-28T00:52:42.892Z,11.10
2022-11-28T00:53:51.480Z,11.45
2022-11-28T00:55:04.230Z,11.95
2022-11-28T00:56:31.491Z,11.60
2022-11-28T00:57:52.264Z,12.15
2022-11-28T00:59:05.079Z,11.65
2022-11-28T01:00:14.870Z,11.63
2022-11-28T01:01:40.534Z,11.07
2022-11-28T01:02:45.553Z,12.13
2022-11-28T01:04:01.585Z,11.05
2022-11-28T01:05:37.645Z,11.60
2022-11-28T01:06:58.843Z,11.15
2022-11-28T01:08:13.340Z,12.32
2022-11-28T01:10:57.456Z,13.07
2022-11-28T01:12:15.354Z,12.65
2022-11-28T01:13:22.370Z,13.40
2022-11-28T01:14:39.966Z,13.63
2022-11-28T01:15:47.029Z,11.73
2022-11-28T01:17:15.082Z,13.48
2022-11-28T01:18:32.433Z,14.10
2022-11-28T01:19:46.162Z,13.77
2022-11-28T01:20:54.186Z,14.57
2022-11-28T01:21:58.987Z,14.60
2022-11-28T01:23:10.241Z,14.82
2022-11-28T01:24:25.767Z,14.70
2022-11-28T01:25:31.781Z,14.50
2022-11-28T01:26:45.354Z,14.93
2022-11-28T01:27:57.429Z,14.68
2022-11-28T01:29:13.888Z,14.52
2022-11-28T01:30:21.020Z,14.38
2022-11-28T01:31:31.586Z,15.40
2022-11-28T01:32:36.922Z,14.98
2022-11-28T01:33:42.925Z,15.40
2022-11-28T01:34:53.300Z,16.30
2022-11-28T01:36:04.088Z,16.15
2022-11-28T01:37:13.596Z,16.42
2022-11-28T01:38:16.485Z,15.90
2022-11-28T01:39:22.322Z,16.55
2022-11-28T01:40:31.810Z,14.80
2022-11-28T01:41:36.171Z,14.38
2022-11-28T01:42:47.766Z,14.88
2022-11-28T01:44:31.595Z,15.00
2022-11-28T01:45:46.637Z,10.98
2022-11-28T01:46:51.865Z,12.63
2022-11-28T01:48:01.088Z,12.60
2022-11-28T01:49:18.678Z,12.50
2022-11-28T01:50:24.073Z,12.07
2022-11-28T01:51:32.127Z,12.40
2022-11-28T01:52:43.437Z,12.60
2022-11-28T01:55:00.912Z,12.88
2022-11-28T01:56:22.752Z,12.68
2022-11-28T01:57:33.116Z,12.70
2022-11-28T01:58:46.428Z,12.77
2022-11-28T02:00:07.356Z,11.95
2022-11-28T02:01:25.650Z,13.73
2022-11-28T02:02:52.270Z,15.27
2022-11-28T02:03:59.151Z,12.85
2022-11-28T02:05:02.104Z,13.50
2022-11-28T02:06:05.861Z,13.82
2022-11-28T02:07:13.977Z,14.30
2022-11-28T02:08:21.542Z,14.13
2022-11-28T02:09:30.638Z,14.50
2022-11-28T02:11:06.497Z,12.52
2022-11-28T02:12:25.943Z,13.65
2022-11-28T02:13:58.225Z,13.30
2022-11-28T02:15:43.357Z,13.05
2022-11-28T02:17:07.289Z,11.63
2022-11-28T02:18:50.702Z,13.50
2022-11-28T02:20:17.040Z,12.73
2022-11-28T02:21:46.529Z,13.52
2022-11-28T02:23:10.793Z,11.52
2022-11-28T02:24:38.810Z,13.10
2022-11-28T02:26:16.629Z,12.00
2022-11-28T02:29:11.514Z,11.63
2022-11-28T02:31:17.405Z,11.80
2022-11-28T02:32:26.842Z,11.85
2022-11-28T02:33:55.901Z,12.85
2022-11-28T02:35:27.357Z,12.82
2022-11-28T02:37:29.066Z,13.23
2022-11-28T02:39:31.518Z,13.02
2022-11-28T02:41:16.644Z,12.95
2022-11-28T02:43:07.338Z,13.70
2022-11-28T02:44:40.842Z,12.00
2022-11-28T02:45:57.835Z,14.00
2022-11-28T02:47:11.504Z,13.88
2022-11-28T02:48:36.455Z,13.52
2022-11-28T02:50:32.920Z,14.27
2022-11-28T02:51:54.031Z,11.80
2022-11-28T02:53:14.432Z,13.60
2022-11-28T02:54:32.696Z,12.43
2022-11-28T02:55:42.539Z,12.38
2022-11-28T02:56:57.728Z,12.05
2022-11-28T02:58:03.785Z,12.70
2022-11-28T02:59:34.505Z,13.23
2022-11-28T03:00:45.754Z,11.48
2022-11-28T03:01:51.427Z,12.70
2022-11-28T03:03:37.047Z,12.23
2022-11-28T03:05:00.695Z,12.30
2022-11-28T03:06:35.658Z,11.55
2022-11-28T03:07:59.180Z,13.13
2022-11-28T03:09:28.004Z,12.45
2022-11-28T03:10:54.801Z,12.07
2022-11-28T03:12:31.984Z,13.30
2022-11-28T03:13:44.836Z,13.48
2022-11-28T03:14:59.108Z,13.90
2022-11-28T03:16:38.032Z,12.63
2022-11-28T03:18:06.531Z,13.05
2022-11-28T03:19:34.815Z,13.27
2022-11-28T03:20:57.534Z,14.77
2022-11-28T03:22:21.910Z,12.85
2022-11-28T03:23:39.787Z,11.98
2022-11-28T03:24:57.435Z,12.85
2022-11-28T03:26:08.884Z,13.32
2022-11-28T03:27:36.025Z,13.70
2022-11-28T03:29:11.551Z,13.13
2022-11-28T03:30:22.072Z,13.60
2022-11-28T03:31:37.225Z,14.20
2022-11-28T03:32:42.951Z,13.80
2022-11-28T03:33:51.545Z,14.73
2022-11-28T03:35:13.299Z,14.05
2022-11-28T03:36:21.651Z,12.55
2022-11-28T03:37:30.273Z,13.38
2022-11-28T03:38:40.335Z,12.90
2022-11-28T03:39:51.466Z,13.13
2022-11-28T03:41:04.944Z,14.95
2022-11-28T03:42:19.709Z,12.85
2022-11-28T03:43:31.006Z,9.80
2022-11-28T03:44:40.661Z,13.40
2022-11-28T03:46:52.117Z,12.40
2022-11-28T03:48:12.256Z,11.63
2022-11-28T03:49:22.191Z,13.52
2022-11-28T03:50:33.583Z,14.38
2022-11-28T03:51:43.224Z,13.45
2022-11-28T03:52:51.984Z,13.43
2022-11-28T03:54:24.043Z,13.82
2022-11-28T03:55:38.234Z,14.07
2022-11-28T03:56:51.765Z,13.55
2022-11-28T03:58:10.875Z,14.32
2022-11-28T03:59:34.627Z,14.35
2022-11-28T04:00:50.754Z,14.88
2022-11-28T04:02:02.925Z,14.15
2022-11-28T04:03:41.209Z,15.02
2022-11-28T04:05:01.811Z,14.02
2022-11-28T04:06:18.374Z,13.88
2022-11-28T04:07:42.437Z,15.32
2022-11-28T04:08:55.454Z,15.27
2022-11-28T04:10:36.528Z,15.68
2022-11-28T04:11:44.786Z,14.55
2022-11-28T04:13:14.349Z,14.52
2022-11-28T04:14:30.795Z,13.45
2022-11-28T04:15:51.695Z,13.95
2022-11-28T04:17:10.288Z,13.25
2022-11-28T04:18:40.475Z,13.57
2022-11-28T04:20:01.239Z,14.38
2022-11-28T04:21:17.432Z,14.45
2022-11-28T04:22:31.199Z,14.13
2022-11-28T04:23:36.823Z,14.27
2022-11-28T04:24:46.020Z,15.38
2022-11-28T04:25:55.920Z,15.45
2022-11-28T04:27:07.066Z,14.43
2022-11-28T04:28:17.865Z,14.93
2022-11-28T04:29:27.880Z,13.82
2022-11-28T04:30:33.110Z,12.52
2022-11-28T04:31:39.185Z,15.15
2022-11-28T04:32:54.365Z,14.07
2022-11-28T04:34:00.648Z,13.75
2022-11-28T04:35:11.726Z,13.02
2022-11-28T04:36:19.202Z,14.50
2022-11-28T04:37:25.922Z,13.95
2022-11-28T04:38:33.787Z,11.90
2022-11-28T04:39:41.027Z,12.02
2022-11-28T04:41:01.037Z,14.50
2022-11-28T04:42:19.542Z,14.10
2022-11-28T04:43:35.627Z,14.68
2022-11-28T04:44:54.464Z,13.30
2022-11-28T04:46:09.813Z,14.38
2022-11-28T04:47:14.274Z,14.93
2022-11-28T04:48:22.552Z,14.45
2022-11-28T04:49:28.756Z,15.18
2022-11-28T04:51:07.734Z,15.43
2022-11-28T04:52:25.502Z,14.30
2022-11-28T04:53:44.311Z,15.10
2022-11-28T04:55:22.592Z,14.40
2022-11-28T04:56:44.068Z,13.85
2022-11-28T04:57:57.283Z,12.88
2022-11-28T04:59:01.035Z,14.52
2022-11-28T05:00:07.347Z,13.88
2022-11-28T05:01:16.810Z,14.05
2022-11-28T05:02:25.896Z,15.30
2022-11-28T05:03:32.560Z,13.02
2022-11-28T05:04:40.581Z,16.38
2022-11-28T05:05:49.866Z,14.55
2022-11-28T05:07:03.433Z,15.20
2022-11-28T05:08:10.085Z,15.05
2022-11-28T05:09:13.782Z,15.52
2022-11-28T05:10:20.957Z,14.95
2022-11-28T05:11:24.017Z,15.63
2022-11-28T05:12:30.193Z,15.73
2022-11-28T05:13:38.277Z,14.55
2022-11-28T05:16:01.655Z,14.75
2022-11-28T05:17:03.865Z,14.90
2022-11-28T05:18:07.579Z,15.95
2022-11-28T05:19:10.088Z,15.20
2022-11-28T05:20:14.078Z,15.27
2022-11-28T05:21:25.464Z,15.93
2022-11-28T05:22:29.253Z,15.40
2022-11-28T05:23:54.332Z,15.18
2022-11-28T05:25:01.576Z,15.75
2022-11-28T05:26:13.973Z,15.93
2022-11-28T05:27:19.417Z,16.67
2022-11-28T05:28:23.414Z,15.65
2022-11-28T05:29:26.410Z,15.38
2022-11-28T05:30:29.592Z,16.65
2022-11-28T05:31:35.088Z,16.33
2022-11-28T05:32:38.684Z,16.30
2022-11-28T05:33:41.258Z,15.68
2022-11-28T05:34:44.316Z,16.58
2022-11-28T05:35:48.796Z,15.13
2022-11-28T05:36:51.474Z,16.42
2022-11-28T05:37:57.673Z,16.17
2022-11-28T05:39:04.954Z,14.20
2022-11-28T05:40:11.852Z,14.23
2022-11-28T05:41:58.929Z,15.13
2022-11-28T05:43:06.250Z,15.00
2022-11-28T05:44:14.761Z,17.08
2022-11-28T05:46:46.306Z,15.80
2022-11-28T05:47:49.499Z,14.60
2022-11-28T05:48:55.497Z,15.63
2022-11-28T05:50:03.348Z,14.85
2022-11-28T05:51:09.336Z,16.10
2022-11-28T05:52:19.955Z,15.90
2022-11-28T05:53:40.098Z,16.10
2022-11-28T05:54:50.742Z,15.13
2022-11-28T05:55:58.341Z,15.18
2022-11-28T05:58:34.636Z,14.38
2022-11-28T05:59:40.146Z,14.48
2022-11-28T06:00:42.503Z,14.07
2022-11-28T06:01:45.240Z,13.25
2022-11-28T06:02:47.841Z,14.18
2022-11-28T06:03:50.702Z,14.02
2022-11-28T06:04:53.482Z,14.60
2022-11-28T06:05:56.478Z,12.52
2022-11-28T06:06:59.227Z,13.85
2022-11-28T06:08:01.444Z,14.35
2022-11-28T06:09:08.063Z,15.32
2022-11-28T06:10:12.675Z,14.17
2022-11-28T06:11:18.324Z,20.10
2022-11-28T06:12:20.737Z,16.23
2022-11-28T06:13:23.841Z,14.05
2022-11-28T06:14:26.363Z,11.70
2022-11-28T06:15:34.943Z,12.15
2022-11-28T06:16:43.984Z,11.20
2022-11-28T06:17:49.130Z,13.32
2022-11-28T06:18:57.117Z,13.40
2022-11-28T06:19:59.556Z,13.52
2022-11-28T06:21:03.004Z,12.38
2022-11-28T06:22:10.284Z,13.32
2022-11-28T06:23:12.799Z,12.45
2022-11-28T06:24:14.948Z,13.05
2022-11-28T06:25:29.454Z,13.73
2022-11-28T06:26:33.453Z,12.93
2022-11-28T06:27:37.018Z,13.70
2022-11-28T06:28:42.755Z,14.45
2022-11-28T06:29:45.329Z,13.00
2022-11-28T06:30:50.054Z,13.88
2022-11-28T06:31:52.440Z,13.25
2022-11-28T06:32:57.197Z,13.48
2022-11-28T06:34:00.172Z,12.13
2022-11-28T06:35:02.912Z,12.82
2022-11-28T06:36:06.613Z,12.45
2022-11-28T06:37:10.522Z,13.88
2022-11-28T06:38:14.612Z,14.48
2022-11-28T06:39:18.315Z,14.98
2022-11-28T06:40:20.497Z,16.08
2022-11-28T06:41:23.487Z,15.20
2022-11-28T06:42:29.278Z,15.15
2022-11-28T06:43:40.917Z,17.35
2022-11-28T06:44:50.179Z,14.65
2022-11-28T06:45:54.401Z,15.57
2022-11-28T06:47:01.521Z,15.65
2022-11-28T06:48:09.644Z,15.38
2022-11-28T06:49:13.945Z,13.60
2022-11-28T06:50:20.269Z,14.65
2022-11-28T06:51:28.106Z,14.98
2022-11-28T06:53:24.211Z,14.45
2022-11-28T06:55:08.720Z,14.27
2022-11-28T06:56:56.015Z,14.38
2022-11-28T07:00:34.216Z,14.38
2022-11-28T07:03:37.456Z,13.80
2022-11-28T07:04:47.403Z,14.00
2022-11-28T07:08:41.449Z,13.32
2022-11-28T07:11:40.384Z,13.88
2022-11-28T07:12:50.155Z,14.25
2022-11-28T07:14:00.949Z,14.32
2022-11-28T07:15:26.771Z,14.52
2022-11-28T07:16:41.127Z,13.52
2022-11-28T07:18:09.976Z,14.32
2022-11-28T07:19:23.206Z,14.25
2022-11-28T07:20:44.258Z,13.18
2022-11-28T07:23:43.105Z,13.52
2022-11-28T07:24:53.214Z,14.25
2022-11-28T07:26:13.659Z,13.05
2022-11-28T07:28:00.741Z,14.18
2022-11-28T07:31:52.354Z,13.73
2022-11-28T07:33:10.792Z,13.88
2022-11-28T07:34:43.192Z,15.02
2022-11-28T07:36:17.521Z,14.82
2022-11-28T07:37:58.216Z,15.38
2022-11-28T07:39:20.856Z,13.77
2022-11-28T07:52:13.378Z,12.45
2022-11-28T07:53:26.217Z,15.13
2022-11-28T07:54:36.323Z,15.10
2022-11-28T07:55:46.061Z,14.27
2022-11-28T07:57:12.801Z,15.50
2022-11-28T07:58:27.443Z,14.93
2022-11-28T07:59:36.394Z,15.13
2022-11-28T08:00:46.501Z,14.90
2022-11-28T08:01:57.738Z,14.95
2022-11-28T08:03:03.360Z,12.77
2022-11-28T08:04:10.947Z,12.55
2022-11-28T08:05:17.398Z,13.60
2022-11-28T08:06:29.269Z,13.07
2022-11-28T08:07:41.254Z,14.10
2022-11-28T08:08:45.761Z,13.20
2022-11-28T08:09:58.175Z,14.93
2022-11-28T08:11:06.339Z,15.02
2022-11-28T12:40:22.396Z,9.63
2022-11-28T12:41:57.186Z,10.30
2022-11-28T12:43:34.090Z,10.23
2022-11-28T12:44:42.742Z,10.43
2022-11-28T12:46:12.547Z,10.77
2022-11-28T12:47:33.151Z,10.20
2022-11-28T12:49:15.387Z,10.63
2022-11-28T12:50:44.773Z,10.15
2022-11-28T12:52:13.445Z,9.93
2022-11-28T12:54:04.828Z,9.60
2022-11-28T12:55:25.028Z,10.55
2022-11-28T12:56:45.257Z,11.18
2022-11-28T12:58:25.482Z,11.40
2022-11-28T12:59:53.084Z,10.02
2022-11-28T13:01:19.655Z,10.50
2022-11-28T13:02:36.391Z,9.90
2022-11-28T13:04:31.008Z,9.90
2022-11-28T13:06:11.871Z,10.20
2022-11-28T13:07:30.569Z,10.68
2022-11-28T13:09:03.287Z,11.10
2022-11-28T13:10:23.684Z,10.55
2022-11-28T13:12:00.180Z,9.55
2022-11-28T13:13:25.651Z,9.70
2022-11-28T13:15:00.210Z,9.48
2022-11-28T13:16:27.483Z,8.80
2022-11-28T13:18:00.534Z,10.30
2022-11-28T13:19:27.273Z,10.55
2022-11-28T13:20:59.527Z,9.93
2022-11-28T13:22:16.338Z,10.05
2022-11-28T13:46:27.705Z,8.68
2022-11-28T14:02:11.754Z,6.10
2022-11-28T14:03:22.901Z,5.75
2022-11-28T14:04:31.458Z,6.80
2022-11-28T14:05:51.498Z,7.28
2022-11-28T14:07:14.162Z,7.55
2022-11-28T14:08:49.997Z,7.05
2022-11-28T14:10:25.782Z,7.50
2022-11-28T14:12:13.553Z,8.15
2022-11-28T14:13:45.494Z,8.73
2022-11-28T14:15:22.358Z,9.68
2022-11-28T14:16:51.765Z,7.28
2022-11-28T14:18:39.224Z,8.13
2022-11-28T14:19:50.387Z,8.85
2022-11-28T14:21:06.585Z,8.15
2022-11-28T14:22:31.265Z,8.02
2022-11-28T14:23:51.452Z,7.60
2022-11-28T14:25:59.839Z,7.57
2022-11-28T14:27:07.515Z,7.80
2022-11-28T14:28:40.395Z,9.73
2022-11-28T14:29:48.230Z,11.38
2022-11-28T14:30:55.270Z,11.13
2022-11-28T14:33:42.649Z,8.80
2022-11-28T14:34:48.417Z,9.32
2022-11-28T14:35:50.878Z,12.30
2022-11-28T14:37:22.123Z,9.85
2022-11-28T14:38:30.485Z,11.07
2022-11-28T14:39:37.508Z,10.23
2022-11-28T14:40:57.892Z,11.23
2022-11-28T14:42:10.067Z,9.73
2022-11-28T14:43:46.373Z,9.85
2022-11-28T14:44:53.267Z,11.55
2022-11-28T14:46:21.877Z,11.07
2022-11-28T14:47:26.522Z,8.60
2022-11-28T14:48:30.489Z,11.25
2022-11-28T14:49:33.808Z,10.77
2022-11-28T14:50:35.712Z,10.85
2022-11-28T14:51:47.642Z,13.88
2022-11-28T14:52:53.125Z,15.55
2022-11-28T14:53:55.943Z,11.15
2022-11-28T14:55:13.609Z,13.57
2022-11-28T14:56:15.835Z,10.43
2022-11-28T14:57:28.171Z,9.85
2022-11-28T14:58:30.830Z,11.05
2022-11-28T14:59:37.687Z,10.13
2022-11-28T15:00:45.546Z,11.60
2022-11-28T15:01:57.430Z,13.25
2022-11-28T15:03:21.889Z,10.63
2022-11-28T15:04:42.941Z,13.48
2022-11-28T15:05:56.267Z,13.45
2022-11-28T15:07:03.504Z,13.68
2022-11-28T15:08:11.887Z,14.05
2022-11-28T15:09:26.255Z,14.02
2022-11-28T15:10:31.078Z,14.18
2022-11-28T15:11:45.781Z,14.45
2022-11-28T15:13:09.089Z,15.35
2022-11-28T15:14:22.655Z,14.43
2022-11-28T15:15:25.356Z,15.57
2022-11-28T15:16:30.729Z,15.32
2022-11-28T15:17:34.172Z,13.43
2022-11-28T15:18:47.689Z,13.57
2022-11-28T15:19:50.590Z,11.48
2022-11-28T15:21:01.589Z,10.95
2022-11-28T15:22:05.617Z,14.13
2022-11-28T15:23:30.166Z,13.65
2022-11-28T15:24:38.557Z,12.25
2022-11-28T15:25:40.991Z,13.17
2022-11-28T15:26:46.121Z,11.13
2022-11-28T15:27:49.019Z,9.40
2022-11-28T15:29:11.360Z,11.60
2022-11-28T15:30:26.796Z,9.88
2022-11-28T15:31:30.526Z,10.35
2022-11-28T15:32:35.102Z,9.40
2022-11-28T15:33:39.816Z,8.38
2022-11-28T15:34:42.616Z,8.63
2022-11-28T15:36:12.057Z,11.27
2022-11-28T15:37:19.277Z,9.95
2022-11-28T15:38:21.613Z,12.38
2022-11-28T15:39:36.037Z,9.35
2022-11-28T15:40:38.285Z,9.55
2022-11-28T15:41:40.533Z,18.33
2022-11-28T15:42:45.277Z,14.10
2022-11-28T15:43:47.795Z,11.20
2022-11-28T15:45:20.942Z,10.77
2022-11-28T15:46:43.282Z,14.15
2022-11-28T15:47:46.844Z,10.07
2022-11-28T15:48:53.873Z,10.85
2022-11-28T15:50:23.011Z,11.73
2022-11-28T15:51:34.084Z,11.88
2022-11-28T15:52:36.174Z,11.88
2022-11-28T15:53:42.496Z,10.82
2022-11-28T15:54:45.259Z,10.90
2022-11-28T15:56:09.334Z,11.57
2022-11-28T15:57:27.216Z,10.32
2022-11-28T15:58:29.609Z,10.00
2022-11-28T15:59:32.226Z,10.23
2022-11-28T16:00:41.680Z,10.68
2022-11-28T16:01:43.976Z,10.60
2022-11-28T16:02:50.072Z,10.32
2022-11-28T16:04:13.653Z,9.80
2022-11-28T16:05:21.393Z,10.02
2022-11-28T16:06:27.107Z,9.48
2022-11-28T16:07:29.340Z,10.00
2022-11-28T16:08:40.531Z,9.88
2022-11-28T16:09:55.335Z,10.18
2022-11-28T16:11:00.152Z,9.25
2022-11-28T16:12:04.578Z,9.55
2022-11-28T16:13:14.435Z,9.85
2022-11-28T16:14:31.217Z,10.15
2022-11-28T16:15:34.847Z,9.43
2022-11-28T16:16:40.308Z,10.23
2022-11-28T16:17:46.285Z,10.55
2022-11-28T16:18:57.222Z,9.65
2022-11-28T16:20:05.065Z,8.27
2022-11-28T16:21:13.678Z,10.07
2022-11-28T16:22:20.638Z,9.88
2022-11-28T16:23:32.626Z,8.85
2022-11-28T16:24:55.679Z,8.80
2022-11-28T16:26:29.575Z,8.60
2022-11-28T16:27:40.074Z,8.60
2022-11-28T16:28:42.129Z,9.68
2022-11-28T16:29:46.807Z,9.18
2022-11-28T16:30:51.303Z,8.93
2022-11-28T16:31:53.844Z,7.53
2022-11-28T16:32:57.061Z,8.27
2022-11-28T16:33:59.891Z,8.10
2022-11-28T16:35:04.074Z,9.50
2022-11-28T16:36:32.199Z,8.20
2022-11-28T16:37:34.302Z,9.80
2022-11-28T16:38:37.449Z,8.05
2022-11-28T16:39:39.652Z,8.38
2022-11-28T16:40:43.816Z,9.25
2022-11-28T16:42:14.379Z,8.68
2022-11-28T16:43:39.588Z,7.53
2022-11-28T16:44:41.722Z,9.00
2022-11-28T16:45:46.511Z,6.55
2022-11-28T16:46:55.250Z,8.27
2022-11-28T16:48:13.006Z,7.97
2022-11-28T16:49:44.922Z,7.70
2022-11-28T16:51:16.410Z,8.23
2022-11-28T16:52:27.637Z,7.53
2022-11-28T16:53:50.385Z,7.85
2022-11-28T16:54:56.679Z,7.45
2022-11-28T16:56:00.905Z,7.55
2022-11-28T16:57:15.169Z,8.65
2022-11-28T16:58:21.191Z,7.07
2022-11-28T16:59:26.004Z,8.57
2022-11-28T17:00:28.219Z,8.43
2022-11-28T17:01:31.110Z,7.90
2022-11-28T17:02:33.676Z,8.15
2022-11-28T17:03:50.773Z,7.88
2022-11-28T17:04:53.945Z,8.43
2022-11-28T17:05:55.905Z,8.20
2022-11-28T17:07:05.279Z,9.25
2022-11-28T17:08:08.518Z,8.38
2022-11-28T17:09:22.377Z,8.13
2022-11-28T17:10:30.236Z,7.75
2022-11-28T17:11:36.709Z,8.98
2022-11-28T17:12:39.410Z,8.00
2022-11-28T17:13:43.101Z,8.02
2022-11-28T17:14:45.047Z,8.25
2022-11-28T17:15:47.094Z,8.27
2022-11-28T17:16:49.417Z,8.57
2022-11-28T17:17:51.854Z,7.80
2022-11-28T17:18:54.187Z,9.43
2022-11-28T17:19:56.429Z,8.30
2022-11-28T17:20:59.845Z,8.48
2022-11-28T17:22:03.397Z,8.90
2022-11-28T17:23:05.585Z,9.77
2022-11-28T17:24:29.509Z,8.63
2022-11-28T17:25:31.595Z,9.07
2022-11-28T17:26:33.926Z,8.98
2022-11-28T17:27:40.158Z,7.47
2022-11-28T17:28:42.276Z,8.88
2022-11-28T17:29:45.531Z,8.60
2022-11-28T17:30:47.971Z,7.57
2022-11-28T17:31:50.526Z,8.00
2022-11-28T17:32:56.405Z,8.52
2022-11-28T17:33:59.144Z,9.20
2022-11-28T17:35:04.476Z,10.43
2022-11-28T17:36:13.211Z,8.80
2022-11-28T17:38:24.622Z,9.07
2022-11-28T17:39:31.971Z,8.05
2022-11-28T17:40:37.982Z,6.97
2022-11-28T17:41:42.085Z,7.85
2022-11-28T17:42:44.330Z,8.45
2022-11-28T17:43:46.728Z,8.05
2022-11-28T17:44:50.132Z,8.10
2022-11-28T17:45:56.962Z,8.68
2022-11-28T17:47:03.899Z,8.48
2022-11-28T17:48:08.303Z,8.38
2022-11-28T17:49:18.211Z,9.15
2022-11-28T17:50:28.193Z,9.23
2022-11-28T17:51:30.861Z,9.52
2022-11-28T17:52:34.653Z,9.43
2022-11-28T17:53:37.830Z,9.45
2022-11-28T17:54:48.822Z,8.70
2022-11-28T17:55:59.563Z,9.90
2022-11-28T17:57:04.399Z,9.85
2022-11-28T17:58:07.395Z,8.95
2022-11-28T17:59:16.219Z,9.05
2022-11-28T18:00:20.420Z,9.23
2022-11-28T18:01:32.124Z,9.40
2022-11-28T18:02:37.439Z,8.80
2022-11-28T18:03:40.570Z,9.07
2022-11-28T18:04:43.573Z,9.90
2022-11-28T18:05:51.012Z,9.07
2022-11-28T18:06:54.242Z,12.20
2022-11-28T18:07:59.922Z,9.65
2022-11-28T18:09:11.435Z,9.93
2022-11-28T18:10:14.574Z,10.15
2022-11-28T18:11:20.028Z,9.65
2022-11-28T18:12:24.490Z,9.88
2022-11-28T18:13:28.411Z,10.20
2022-11-28T18:14:36.594Z,10.05
2022-11-28T18:15:43.979Z,8.73
2022-11-28T18:16:49.233Z,9.93
2022-11-28T18:17:52.741Z,9.80
2022-11-28T18:18:56.010Z,10.35
2022-11-28T18:19:59.824Z,9.70
2022-11-28T18:21:07.530Z,9.23
2022-11-28T18:22:12.350Z,10.23
2022-11-28T18:23:19.343Z,10.00
2022-11-28T18:24:27.097Z,9.20
2022-11-28T18:25:33.964Z,9.93
2022-11-28T18:26:52.223Z,10.20
2022-11-28T18:28:01.851Z,10.32
2022-11-28T18:34:42.140Z,9.48
2022-11-28T18:48:52.081Z,7.80
2022-11-28T18:50:08.349Z,9.00
2022-11-28T18:55:33.140Z,10.10
2022-11-28T18:56:57.326Z,10.35
2022-11-28T19:00:32.863Z,9.45
2022-11-28T19:01:36.136Z,9.50
2022-11-28T19:03:07.381Z,10.55
2022-11-28T19:04:19.169Z,10.70
2022-11-28T19:05:43.651Z,9.20
2022-11-28T19:07:16.250Z,10.20
2022-11-28T20:18:19.792Z,12.43
2022-11-28T20:22:03.334Z,9.95
2022-11-28T20:34:13.668Z,10.27
2022-11-28T20:42:46.711Z,10.40
2022-11-28T20:58:49.411Z,8.77
